Time;durP1;ratioP1;P1;durP2;ratioP2;P2;SDS_P1;SDS_P2;PMS_P1;PMS_P2;Temp;Humidity;BMP_temperature;BMP_pressure;BME280_temperature;BME280_humidity;BME280_pressure;Samples;Min_cycle;Max_cycle;Signal;HPM_P1;HPM_P2
2021/09/29 00:01:23;;;;;;;8.15;4.72;;;;;;;;;;5053516;28;20029;-84
2021/09/29 00:03:48;;;;;;;6.75;3.45;;;;;;;;;;5064768;28;20029;-82
2021/09/29 00:06:14;;;;;;;7.93;3.92;;;;;;;;;;5038396;28;20103;-83
2021/09/29 00:08:39;;;;;;;7.22;4.03;;;;;;;;;;5023882;28;20025;-84
2021/09/29 00:11:05;;;;;;;9.13;4.10;;;;;;;;;;5060707;28;20057;-83
2021/09/29 00:13:30;;;;;;;7.65;3.92;;;;;;;;;;5024604;28;20035;-83
2021/09/29 00:15:56;;;;;;;8.55;4.20;;;;;;;;;;5039268;28;20104;-83
2021/09/29 00:18:22;;;;;;;7.93;4.20;;;;;;;;;;5042591;28;20047;-84
2021/09/29 00:20:48;;;;;;;6.55;4.10;;;;;;;;;;5056061;28;20043;-83
2021/09/29 00:23:13;;;;;;;7.63;4.10;;;;;;;;;;5048982;28;21044;-84
2021/09/29 00:25:39;;;;;;;8.68;4.28;;;;;;;;;;5031599;28;20029;-84
2021/09/29 00:28:04;;;;;;;6.53;3.95;;;;;;;;;;5027548;28;20033;-83
2021/09/29 00:30:39;;;;;;;8.05;4.25;;;;;;;;;;5006007;28;20508;-84
2021/09/29 00:33:05;;;;;;;9.73;4.20;;;;;;;;;;5020601;28;20510;-83
2021/09/29 00:35:31;;;;;;;7.85;4.20;;;;;;;;;;5043408;28;20067;-83
2021/09/29 00:37:57;;;;;;;11.27;4.72;;;;;;;;;;5024039;28;20033;-83
2021/09/29 00:40:22;;;;;;;8.10;4.28;;;;;;;;;;5047033;28;20044;-83
2021/09/29 00:42:48;;;;;;;7.03;4.20;;;;;;;;;;5040610;28;20032;-83
2021/09/29 00:45:13;;;;;;;6.60;4.18;;;;;;;;;;5036250;28;20850;-83
2021/09/29 00:47:39;;;;;;;7.30;4.07;;;;;;;;;;5031779;28;20037;-83
2021/09/29 00:50:07;;;;;;;7.80;4.03;;;;;;;;;;5046166;28;20025;-83
2021/09/29 00:52:34;;;;;;;7.82;4.40;;;;;;;;;;5060198;28;20025;-84
2021/09/29 00:55:00;;;;;;;9.30;5.10;;;;;;;;;;5048052;28;20025;-83
2021/09/29 00:57:26;;;;;;;8.27;4.20;;;;;;;;;;5041233;28;20079;-83
2021/09/29 00:59:51;;;;;;;8.73;4.55;;;;;;;;;;5044612;28;20028;-82
2021/09/29 01:02:18;;;;;;;7.88;4.70;;;;;;;;;;5035573;28;20044;-82
2021/09/29 01:04:44;;;;;;;10.70;4.78;;;;;;;;;;5062057;28;20013;-83
2021/09/29 01:07:24;;;;;;;8.32;4.63;;;;;;;;;;5051068;28;20029;-83
2021/09/29 01:10:17;;;;;;;9.15;4.45;;;;;;;;;;5057747;28;20032;-84
2021/09/29 01:12:56;;;;;;;8.00;4.10;;;;;;;;;;5071550;28;20040;-82
2021/09/29 01:15:31;;;;;;;7.45;4.28;;;;;;;;;;5062858;28;20102;-83
2021/09/29 01:18:09;;;;;;;7.57;4.38;;;;;;;;;;5042020;28;20029;-82
2021/09/29 01:20:50;;;;;;;9.27;4.45;;;;;;;;;;5049448;28;20039;-83
2021/09/29 01:23:28;;;;;;;7.88;4.43;;;;;;;;;;5040447;28;20032;-84
2021/09/29 01:26:06;;;;;;;7.50;4.57;;;;;;;;;;5040097;28;20052;-83
2021/09/29 01:28:55;;;;;;;7.20;4.30;;;;;;;;;;5066898;28;20025;-83
2021/09/29 01:31:23;;;;;;;9.80;4.63;;;;;;;;;;5059905;28;20454;-83
2021/09/29 01:33:51;;;;;;;10.23;4.60;;;;;;;;;;5038815;28;20039;-83
2021/09/29 01:36:18;;;;;;;7.90;4.60;;;;;;;;;;5049465;28;20028;-83
2021/09/29 01:38:47;;;;;;;8.63;4.70;;;;;;;;;;5062814;28;20020;-83
2021/09/29 01:41:13;;;;;;;8.27;4.55;;;;;;;;;;5047989;28;20032;-84
2021/09/29 01:43:38;;;;;;;6.57;4.60;;;;;;;;;;5049828;28;20033;-82
2021/09/29 01:46:06;;;;;;;7.88;4.07;;;;;;;;;;5062650;28;20031;-83
2021/09/29 01:48:32;;;;;;;10.32;4.53;;;;;;;;;;5042699;28;20031;-83
2021/09/29 01:51:01;;;;;;;7.35;4.63;;;;;;;;;;5043949;28;20081;-84
2021/09/29 01:53:31;;;;;;;8.88;4.40;;;;;;;;;;5010114;28;20025;-83
2021/09/29 01:55:57;;;;;;;9.80;4.63;;;;;;;;;;5061331;28;20441;-82
2021/09/29 01:58:22;;;;;;;7.13;4.28;;;;;;;;;;5048564;28;20056;-83
2021/09/29 02:00:48;;;;;;;9.70;4.68;;;;;;;;;;5026820;28;20091;-83
2021/09/29 02:03:19;;;;;;;8.77;4.50;;;;;;;;;;5016214;28;20025;-83
2021/09/29 02:05:45;;;;;;;8.50;4.25;;;;;;;;;;5040538;28;20024;-83
2021/09/29 02:08:10;;;;;;;8.63;4.25;;;;;;;;;;5040385;28;20538;-84
2021/09/29 02:10:35;;;;;;;9.35;4.10;;;;;;;;;;5041730;28;20036;-82
2021/09/29 02:13:01;;;;;;;9.93;4.40;;;;;;;;;;5028771;28;20086;-84
2021/09/29 02:15:26;;;;;;;10.82;4.75;;;;;;;;;;5048095;28;20492;-83
2021/09/29 02:17:53;;;;;;;8.90;4.22;;;;;;;;;;5045935;28;20033;-82
2021/09/29 02:20:19;;;;;;;11.25;4.47;;;;;;;;;;5058762;28;20022;-83
2021/09/29 02:22:45;;;;;;;7.70;4.13;;;;;;;;;;5026935;28;20499;-82
2021/09/29 02:25:10;;;;;;;8.50;4.65;;;;;;;;;;5029594;28;20025;-82
2021/09/29 02:27:37;;;;;;;11.00;5.10;;;;;;;;;;5039052;28;20029;-83
2021/09/29 02:30:04;;;;;;;7.40;4.22;;;;;;;;;;5041522;28;20029;-83
2021/09/29 02:32:30;;;;;;;10.75;5.38;;;;;;;;;;5057523;28;20032;-83
2021/09/29 02:34:55;;;;;;;7.53;4.15;;;;;;;;;;5043915;28;20443;-83
2021/09/29 02:37:21;;;;;;;9.40;4.15;;;;;;;;;;5041229;28;20056;-83
2021/09/29 02:39:46;;;;;;;6.65;4.25;;;;;;;;;;5061470;28;20025;-83
2021/09/29 02:42:12;;;;;;;7.72;4.20;;;;;;;;;;5043715;28;20068;-83
2021/09/29 02:44:37;;;;;;;7.18;3.80;;;;;;;;;;5042608;28;20033;-84
2021/09/29 02:47:03;;;;;;;8.30;4.20;;;;;;;;;;5031822;28;20052;-83
2021/09/29 02:49:29;;;;;;;6.25;3.90;;;;;;;;;;5027666;28;20049;-82
2021/09/29 02:51:54;;;;;;;11.07;4.00;;;;;;;;;;5035710;28;20398;-82
2021/09/29 02:54:20;;;;;;;7.30;4.13;;;;;;;;;;5017748;28;20085;-83
2021/09/29 02:56:45;;;;;;;7.95;3.90;;;;;;;;;;4989156;28;20099;-82
2021/09/29 02:59:11;;;;;;;7.25;3.88;;;;;;;;;;5042493;28;20033;-83
2021/09/29 03:01:39;;;;;;;8.68;3.83;;;;;;;;;;5018030;28;20067;-83
2021/09/29 03:04:05;;;;;;;7.60;4.00;;;;;;;;;;5039732;28;20109;-83
2021/09/29 03:06:30;;;;;;;6.78;4.22;;;;;;;;;;5022987;28;21487;-82
2021/09/29 03:08:56;;;;;;;9.45;4.35;;;;;;;;;;5041193;28;20042;-83
2021/09/29 03:11:22;;;;;;;7.43;4.10;;;;;;;;;;5008487;28;20029;-83
2021/09/29 03:13:47;;;;;;;6.75;3.75;;;;;;;;;;5020068;28;20029;-83
2021/09/29 03:16:14;;;;;;;6.95;3.53;;;;;;;;;;5018312;28;20393;-83
2021/09/29 03:18:40;;;;;;;8.50;3.85;;;;;;;;;;5005486;28;20449;-82
2021/09/29 03:21:05;;;;;;;11.07;3.90;;;;;;;;;;5003550;28;20075;-82
2021/09/29 03:23:31;;;;;;;6.65;4.00;;;;;;;;;;5039308;28;20056;-84
2021/09/29 03:25:56;;;;;;;8.40;3.83;;;;;;;;;;5015142;28;20034;-83
2021/09/29 03:28:22;;;;;;;7.22;3.85;;;;;;;;;;5003233;28;20508;-83
2021/09/29 03:30:47;;;;;;;8.45;4.07;;;;;;;;;;5016641;28;20025;-83
2021/09/29 03:33:13;;;;;;;6.75;3.60;;;;;;;;;;5020258;28;20073;-84
2021/09/29 03:35:38;;;;;;;6.63;3.63;;;;;;;;;;5012510;28;20032;-83
2021/09/29 03:38:04;;;;;;;8.57;3.60;;;;;;;;;;5036082;28;20501;-84
2021/09/29 03:40:29;;;;;;;6.75;3.50;;;;;;;;;;5044504;28;20044;-84
2021/09/29 03:42:55;;;;;;;6.85;3.83;;;;;;;;;;5016231;28;20041;-82
2021/09/29 03:45:20;;;;;;;10.27;4.05;;;;;;;;;;5018349;28;20033;-83
2021/09/29 03:47:46;;;;;;;7.65;3.60;;;;;;;;;;5012724;28;20059;-82
2021/09/29 03:50:12;;;;;;;6.45;3.70;;;;;;;;;;5020869;28;20103;-83
2021/09/29 03:52:38;;;;;;;6.47;3.55;;;;;;;;;;5041163;28;20120;-83
2021/09/29 03:55:05;;;;;;;6.88;3.50;;;;;;;;;;5041761;28;20059;-82
2021/09/29 03:57:30;;;;;;;8.77;3.72;;;;;;;;;;5056676;28;20128;-82
2021/09/29 03:59:56;;;;;;;8.05;3.58;;;;;;;;;;5053060;28;20152;-83
2021/09/29 04:02:21;;;;;;;7.32;3.40;;;;;;;;;;5053523;28;20029;-81
2021/09/29 04:04:47;;;;;;;11.88;3.50;;;;;;;;;;5069616;28;20108;-83
2021/09/29 04:07:13;;;;;;;7.07;3.75;;;;;;;;;;5039838;28;20033;-82
2021/09/29 04:09:38;;;;;;;7.13;3.88;;;;;;;;;;5038012;28;20522;-83
2021/09/29 04:12:04;;;;;;;9.85;3.60;;;;;;;;;;5043779;28;20114;-82
2021/09/29 04:14:30;;;;;;;6.10;3.20;;;;;;;;;;5052427;28;20032;-83
2021/09/29 04:16:55;;;;;;;7.38;3.30;;;;;;;;;;5070264;28;20039;-82
2021/09/29 04:19:20;;;;;;;9.63;3.38;;;;;;;;;;5053777;28;20039;-83
2021/09/29 04:21:46;;;;;;;4.80;3.20;;;;;;;;;;5053723;28;20410;-82
2021/09/29 04:24:12;;;;;;;8.52;3.20;;;;;;;;;;5060196;28;20085;-82
2021/09/29 04:26:38;;;;;;;7.03;3.40;;;;;;;;;;5060152;28;20051;-82
2021/09/29 04:29:04;;;;;;;6.57;3.60;;;;;;;;;;5057224;28;20445;-82
2021/09/29 04:31:30;;;;;;;7.43;3.40;;;;;;;;;;5056967;28;20052;-82
2021/09/29 04:33:55;;;;;;;6.93;3.25;;;;;;;;;;5055791;28;20033;-83
2021/09/29 04:36:21;;;;;;;5.80;2.88;;;;;;;;;;5036999;28;20030;-83
2021/09/29 04:38:46;;;;;;;7.20;3.00;;;;;;;;;;5039455;28;20047;-83
2021/09/29 04:41:11;;;;;;;6.70;3.08;;;;;;;;;;5034400;28;20383;-82
2021/09/29 04:43:37;;;;;;;7.03;3.17;;;;;;;;;;5043569;28;20037;-82
2021/09/29 04:46:02;;;;;;;6.18;2.92;;;;;;;;;;5037715;28;20095;-81
2021/09/29 04:48:28;;;;;;;5.13;3.13;;;;;;;;;;5038472;28;20056;-83
2021/09/29 04:50:53;;;;;;;6.05;3.17;;;;;;;;;;5033816;28;20046;-83
2021/09/29 04:53:19;;;;;;;6.32;3.13;;;;;;;;;;5036997;28;20037;-81
2021/09/29 04:55:44;;;;;;;5.60;3.25;;;;;;;;;;5007763;28;20464;-82
2021/09/29 04:58:11;;;;;;;9.13;3.25;;;;;;;;;;5022409;28;20041;-83
2021/09/29 05:00:36;;;;;;;6.10;3.55;;;;;;;;;;5035898;28;20029;-83
2021/09/29 05:03:02;;;;;;;7.95;3.15;;;;;;;;;;5018679;28;20040;-82
2021/09/29 05:05:28;;;;;;;6.82;3.22;;;;;;;;;;5046184;28;20033;-82
2021/09/29 05:07:57;;;;;;;6.18;2.60;;;;;;;;;;5033856;28;20499;-82
2021/09/29 05:10:36;;;;;;;7.15;3.40;;;;;;;;;;5002190;28;20072;-82
2021/09/29 05:13:07;;;;;;;6.53;3.03;;;;;;;;;;5035297;28;20030;-80
2021/09/29 05:15:33;;;;;;;7.10;2.97;;;;;;;;;;5023691;28;20053;-81
2021/09/29 05:17:58;;;;;;;6.38;2.83;;;;;;;;;;5014042;28;20040;-81
2021/09/29 05:20:24;;;;;;;14.85;3.63;;;;;;;;;;5051633;28;20037;-81
2021/09/29 05:22:49;;;;;;;9.30;3.20;;;;;;;;;;5010966;28;20064;-82
2021/09/29 05:25:14;;;;;;;6.75;3.10;;;;;;;;;;5027386;28;20025;-80
2021/09/29 05:27:40;;;;;;;8.10;3.00;;;;;;;;;;5024737;28;20045;-81
2021/09/29 05:30:06;;;;;;;7.50;2.78;;;;;;;;;;5040546;28;20075;-81
2021/09/29 05:32:31;;;;;;;7.43;2.90;;;;;;;;;;5046179;28;20053;-80
2021/09/29 05:34:56;;;;;;;11.00;3.10;;;;;;;;;;4992441;28;20029;-83
2021/09/29 05:37:22;;;;;;;9.13;3.38;;;;;;;;;;5010198;28;20546;-80
2021/09/29 05:39:47;;;;;;;4.75;2.65;;;;;;;;;;5047106;28;20048;-80
2021/09/29 05:42:12;;;;;;;6.60;2.95;;;;;;;;;;5044244;28;20032;-81
2021/09/29 05:44:39;;;;;;;7.32;2.80;;;;;;;;;;5052546;28;20037;-81
2021/09/29 05:47:05;;;;;;;5.75;2.90;;;;;;;;;;5035336;28;20041;-80
2021/09/29 05:49:31;;;;;;;6.55;2.80;;;;;;;;;;4993466;28;20040;-80
2021/09/29 05:51:57;;;;;;;5.63;2.95;;;;;;;;;;4993487;28;20501;-82
2021/09/29 05:54:22;;;;;;;7.90;2.63;;;;;;;;;;5042998;28;20485;-81
2021/09/29 05:56:48;;;;;;;6.10;2.70;;;;;;;;;;5041495;28;20112;-82
2021/09/29 05:59:14;;;;;;;5.53;2.65;;;;;;;;;;5028424;28;20029;-80
2021/09/29 06:01:39;;;;;;;7.50;2.72;;;;;;;;;;5032930;28;20084;-80
2021/09/29 06:04:05;;;;;;;5.95;2.58;;;;;;;;;;5028947;28;20431;-81
2021/09/29 06:06:30;;;;;;;5.30;2.55;;;;;;;;;;5024448;28;20034;-80
2021/09/29 06:08:55;;;;;;;7.07;3.17;;;;;;;;;;5025018;28;20025;-80
2021/09/29 06:11:21;;;;;;;6.70;2.90;;;;;;;;;;5043345;28;20036;-81
2021/09/29 06:13:47;;;;;;;10.30;2.65;;;;;;;;;;5040567;28;20029;-80
2021/09/29 06:16:14;;;;;;;6.78;2.47;;;;;;;;;;5000712;28;20029;-80
2021/09/29 06:18:39;;;;;;;6.53;2.30;;;;;;;;;;5014866;28;20025;-80
2021/09/29 06:21:07;;;;;;;5.22;2.58;;;;;;;;;;5024431;28;20103;-81
2021/09/29 06:23:34;;;;;;;5.00;2.30;;;;;;;;;;5025572;28;20072;-81
2021/09/29 06:26:01;;;;;;;7.22;2.50;;;;;;;;;;5024672;28;20021;-83
2021/09/29 06:28:28;;;;;;;6.65;2.42;;;;;;;;;;5050449;28;20127;-81
2021/09/29 06:30:54;;;;;;;7.75;2.47;;;;;;;;;;5041556;28;20843;-80
2021/09/29 06:33:20;;;;;;;6.30;3.15;;;;;;;;;;5027725;28;20811;-82
2021/09/29 06:35:46;;;;;;;5.43;2.67;;;;;;;;;;5040290;28;20038;-81
2021/09/29 06:38:11;;;;;;;7.55;2.20;;;;;;;;;;5009827;28;20037;-83
2021/09/29 06:40:37;;;;;;;4.18;2.10;;;;;;;;;;5027233;28;20029;-83
2021/09/29 06:43:05;;;;;;;6.05;2.20;;;;;;;;;;5022433;28;20037;-82
2021/09/29 06:45:32;;;;;;;4.70;2.42;;;;;;;;;;5036949;28;20025;-81
2021/09/29 06:47:57;;;;;;;5.70;2.63;;;;;;;;;;5042839;28;20065;-84
2021/09/29 06:50:23;;;;;;;6.70;2.75;;;;;;;;;;5008633;28;20115;-81
2021/09/29 06:52:48;;;;;;;5.63;2.72;;;;;;;;;;5057331;28;20483;-84
2021/09/29 06:55:14;;;;;;;4.47;2.30;;;;;;;;;;5036573;28;20036;-83
2021/09/29 06:57:40;;;;;;;5.88;2.40;;;;;;;;;;5036689;28;20029;-84
2021/09/29 07:00:09;;;;;;;5.22;2.05;;;;;;;;;;5053767;28;20028;-82
2021/09/29 07:02:34;;;;;;;5.15;2.40;;;;;;;;;;5050724;28;20432;-83
2021/09/29 07:05:00;;;;;;;5.65;2.42;;;;;;;;;;5053816;28;20079;-83
2021/09/29 07:07:25;;;;;;;6.57;2.35;;;;;;;;;;5061859;28;20039;-82
2021/09/29 07:09:51;;;;;;;5.30;2.63;;;;;;;;;;5019003;28;20033;-82
2021/09/29 07:12:16;;;;;;;6.00;2.85;;;;;;;;;;5056108;28;20569;-81
2021/09/29 07:14:42;;;;;;;8.48;2.70;;;;;;;;;;5054503;28;20033;-82
2021/09/29 07:17:07;;;;;;;9.68;3.00;;;;;;;;;;5056018;28;20027;-83
2021/09/29 07:19:33;;;;;;;6.53;2.40;;;;;;;;;;5038790;28;20029;-82
2021/09/29 07:21:58;;;;;;;4.53;2.17;;;;;;;;;;5037177;28;20051;-83
2021/09/29 07:24:24;;;;;;;6.32;2.65;;;;;;;;;;5056630;28;20068;-82
2021/09/29 07:26:49;;;;;;;4.20;2.30;;;;;;;;;;5038658;28;20029;-81
2021/09/29 07:29:15;;;;;;;5.25;2.40;;;;;;;;;;5070851;28;20024;-81
2021/09/29 07:31:41;;;;;;;7.88;2.55;;;;;;;;;;5054432;28;20041;-84
2021/09/29 07:34:07;;;;;;;6.07;2.80;;;;;;;;;;5037770;28;20365;-82
2021/09/29 07:36:34;;;;;;;6.10;2.60;;;;;;;;;;5057107;28;20036;-81
2021/09/29 07:39:00;;;;;;;5.75;2.53;;;;;;;;;;5055230;28;20480;-81
2021/09/29 07:41:26;;;;;;;8.40;2.85;;;;;;;;;;5056249;28;20032;-82
2021/09/29 07:43:52;;;;;;;7.20;2.88;;;;;;;;;;5048546;28;20549;-83
2021/09/29 07:46:17;;;;;;;6.78;3.03;;;;;;;;;;5036576;28;20388;-83
2021/09/29 07:48:42;;;;;;;6.00;3.00;;;;;;;;;;5047475;28;20029;-83
2021/09/29 07:51:09;;;;;;;4.50;2.78;;;;;;;;;;5034249;28;20056;-81
2021/09/29 07:53:35;;;;;;;6.53;2.85;;;;;;;;;;5036059;28;20506;-82
2021/09/29 07:56:00;;;;;;;6.68;2.58;;;;;;;;;;5051807;28;20029;-80
2021/09/29 07:58:26;;;;;;;5.28;2.67;;;;;;;;;;5038698;28;20029;-82
2021/09/29 08:00:51;;;;;;;5.70;2.92;;;;;;;;;;5031786;28;20424;-82
2021/09/29 08:03:17;;;;;;;8.35;3.10;;;;;;;;;;5055199;28;20071;-83
2021/09/29 08:05:42;;;;;;;6.40;2.97;;;;;;;;;;5052549;28;20032;-82
2021/09/29 08:08:08;;;;;;;4.95;2.35;;;;;;;;;;5054476;28;20104;-82
2021/09/29 08:10:34;;;;;;;5.68;2.65;;;;;;;;;;5036710;28;20071;-83
2021/09/29 08:13:00;;;;;;;5.70;2.75;;;;;;;;;;5057619;28;20403;-80
2021/09/29 08:15:27;;;;;;;4.70;2.60;;;;;;;;;;5034027;28;20029;-83
2021/09/29 08:17:55;;;;;;;6.10;2.88;;;;;;;;;;5052012;28;20017;-83
2021/09/29 08:20:22;;;;;;;5.55;2.90;;;;;;;;;;5048504;28;20544;-81
2021/09/29 08:22:54;;;;;;;4.82;3.15;;;;;;;;;;5060309;28;20106;-81
2021/09/29 08:25:54;;;;;;;5.82;3.28;;;;;;;;;;5052722;28;20036;-83
2021/09/29 08:31:23;;;;;;;5.03;3.00;;;;;;;;;;5055346;28;20044;-80
2021/09/29 08:36:49;;;;;;;4.93;3.03;;;;;;;;;;5045675;28;20045;-81
2021/09/29 08:39:20;;;;;;;7.28;3.50;;;;;;;;;;5034486;28;20079;-81
2021/09/29 08:47:06;;;;;;;5.45;3.35;;;;;;;;;;5058295;28;20100;-81
2021/09/29 08:49:55;;;;;;;4.70;2.85;;;;;;;;;;5047485;28;20067;-82
2021/09/29 08:52:41;;;;;;;5.18;2.70;;;;;;;;;;5048524;28;20067;-83
2021/09/29 08:55:34;;;;;;;3.80;2.65;;;;;;;;;;5051666;28;20032;-81
2021/09/29 09:15:40;;;;;;;5.10;1.75;;;;;;;;;;5057635;28;20060;-81
2021/09/29 09:17:36;;;;;;;3.75;1.90;;;;;;;;;;5051323;28;20037;-84
2021/09/29 09:20:14;;;;;;;4.35;2.40;;;;;;;;;;5055712;28;20021;-83
2021/09/29 09:22:41;;;;;;;3.03;2.10;;;;;;;;;;5071611;28;20025;-81
2021/09/29 09:25:07;;;;;;;5.15;2.40;;;;;;;;;;5056217;28;20017;-83
2021/09/29 09:27:47;;;;;;;5.30;2.50;;;;;;;;;;5051383;28;20061;-81
2021/09/29 09:30:28;;;;;;;3.25;2.00;;;;;;;;;;5059471;28;20063;-82
2021/09/29 09:32:57;;;;;;;3.58;2.17;;;;;;;;;;5053730;28;20021;-83
2021/09/29 09:35:27;;;;;;;2.80;1.90;;;;;;;;;;5055281;28;20037;-81
2021/09/29 09:37:56;;;;;;;3.75;1.80;;;;;;;;;;5049045;28;20075;-81
2021/09/29 09:40:24;;;;;;;4.38;1.80;;;;;;;;;;5042719;28;20047;-81
2021/09/29 09:42:56;;;;;;;5.00;1.77;;;;;;;;;;5056671;28;20025;-81
2021/09/29 09:45:41;;;;;;;3.90;2.10;;;;;;;;;;5057511;28;20025;-82
2021/09/29 09:48:25;;;;;;;4.13;2.13;;;;;;;;;;5053916;28;20063;-81
2021/09/29 09:51:03;;;;;;;2.50;1.90;;;;;;;;;;5051874;28;20087;-81
2021/09/29 09:53:29;;;;;;;3.60;2.33;;;;;;;;;;5054124;28;20037;-81
2021/09/29 09:55:55;;;;;;;4.00;1.98;;;;;;;;;;5040084;28;20100;-83
2021/09/29 09:58:20;;;;;;;3.80;2.22;;;;;;;;;;5037710;28;20039;-81
2021/09/29 10:00:46;;;;;;;2.78;1.83;;;;;;;;;;5057437;28;20040;-81
2021/09/29 10:03:12;;;;;;;2.95;1.73;;;;;;;;;;5038128;28;20029;-84
2021/09/29 10:05:41;;;;;;;3.53;1.98;;;;;;;;;;5037947;28;20029;-81
2021/09/29 10:08:09;;;;;;;3.75;1.55;;;;;;;;;;5053854;28;20067;-81
2021/09/29 10:10:59;;;;;;;2.40;1.55;;;;;;;;;;5059039;28;20036;-81
2021/09/29 10:27:21;;;;;;;3.65;1.67;;;;;;;;;;5055318;28;20021;-81
2021/09/29 10:29:50;;;;;;;4.80;1.60;;;;;;;;;;5051673;28;20025;-81
2021/09/29 10:32:28;;;;;;;3.97;1.95;;;;;;;;;;5060156;28;20171;-85
2021/09/29 10:35:08;;;;;;;2.67;1.90;;;;;;;;;;5025890;28;20028;-82
2021/09/29 10:44:04;;;;;;;4.20;1.92;;;;;;;;;;5054836;28;20507;-81
2021/09/29 11:05:52;;;;;;;2.70;1.77;;;;;;;;;;5050335;28;20392;-81
2021/09/29 11:08:43;;;;;;;3.13;1.88;;;;;;;;;;5040904;28;20404;-80
2021/09/29 11:30:50;;;;;;;3.42;1.70;;;;;;;;;;5041383;28;20036;-80
2021/09/29 11:33:39;;;;;;;1.98;1.40;;;;;;;;;;5059647;28;20028;-84
2021/09/29 11:36:22;;;;;;;2.97;1.80;;;;;;;;;;5041567;28;20033;-84
2021/09/29 12:09:52;;;;;;;3.70;2.40;;;;;;;;;;5045849;28;20105;-81
2021/09/29 12:12:25;;;;;;;6.15;2.50;;;;;;;;;;5018850;28;20032;-82
2021/09/29 12:14:58;;;;;;;7.13;3.20;;;;;;;;;;5045422;28;20036;-82
2021/09/29 12:17:29;;;;;;;7.67;2.30;;;;;;;;;;5046326;28;20029;-81
2021/09/29 12:20:11;;;;;;;6.75;1.98;;;;;;;;;;5064455;28;20032;-82
2021/09/29 12:22:53;;;;;;;4.13;2.00;;;;;;;;;;5029098;28;20043;-81
2021/09/29 12:25:52;;;;;;;3.85;1.75;;;;;;;;;;5045741;28;20056;-82
2021/09/29 12:31:09;;;;;;;5.63;1.40;;;;;;;;;;5045404;28;20425;-84
2021/09/29 12:36:27;;;;;;;6.28;1.60;;;;;;;;;;5043303;28;20043;-80
2021/09/29 12:38:53;;;;;;;4.68;1.42;;;;;;;;;;5044143;28;20037;-81
2021/09/29 12:41:18;;;;;;;5.15;1.77;;;;;;;;;;5031484;28;20025;-80
2021/09/29 12:43:44;;;;;;;8.23;1.70;;;;;;;;;;5025800;28;20124;-82
2021/09/29 12:46:17;;;;;;;5.40;1.70;;;;;;;;;;5025053;28;20579;-85
2021/09/29 12:48:43;;;;;;;3.28;1.83;;;;;;;;;;5041611;28;20341;-84
2021/09/29 12:51:13;;;;;;;5.63;1.92;;;;;;;;;;5023306;28;20053;-82
2021/09/29 12:53:49;;;;;;;3.53;1.70;;;;;;;;;;5023275;28;20044;-81
2021/09/29 12:56:17;;;;;;;6.43;1.85;;;;;;;;;;5038225;28;20399;-81
2021/09/29 12:58:47;;;;;;;6.38;2.00;;;;;;;;;;5036920;28;20060;-81
2021/09/29 13:01:14;;;;;;;4.20;1.00;;;;;;;;;;5055144;28;20041;-82
2021/09/29 13:03:39;;;;;;;4.90;0.80;;;;;;;;;;5058309;28;20106;-82
2021/09/29 13:06:05;;;;;;;4.05;0.95;;;;;;;;;;5021799;28;20435;-84
2021/09/29 13:08:31;;;;;;;3.15;0.90;;;;;;;;;;5040981;28;20037;-83
2021/09/29 13:10:58;;;;;;;2.85;0.60;;;;;;;;;;5040999;28;20435;-82
2021/09/29 13:13:27;;;;;;;4.65;0.80;;;;;;;;;;5040732;28;20029;-82
2021/09/29 13:15:56;;;;;;;1.70;0.60;;;;;;;;;;5022458;28;20048;-83
2021/09/29 13:21:14;;;;;;;2.50;0.68;;;;;;;;;;5030347;28;20045;-80
2021/09/29 13:23:46;;;;;;;3.08;0.75;;;;;;;;;;5032340;28;20519;-84
2021/09/29 13:36:49;;;;;;;5.97;0.70;;;;;;;;;;5025049;28;20036;-83
2021/09/29 13:39:18;;;;;;;3.83;0.90;;;;;;;;;;5042119;28;20468;-81
2021/09/29 13:41:46;;;;;;;5.75;0.60;;;;;;;;;;5045213;28;20029;-84
2021/09/29 13:44:12;;;;;;;5.10;1.02;;;;;;;;;;5030422;28;20037;-80
2021/09/29 13:46:39;;;;;;;4.15;0.70;;;;;;;;;;5042964;28;20136;-84
2021/09/29 13:49:07;;;;;;;3.05;0.70;;;;;;;;;;5050307;28;20025;-80
2021/09/29 13:51:37;;;;;;;4.60;0.80;;;;;;;;;;5047033;28;20049;-82
2021/09/29 13:54:16;;;;;;;3.42;0.85;;;;;;;;;;5046055;28;20044;-80
2021/09/29 13:56:54;;;;;;;6.20;1.02;;;;;;;;;;5048025;28;20025;-83
2021/09/29 14:30:42;;;;;;;2.75;0.52;;;;;;;;;;5044297;28;20523;-80
2021/09/29 14:36:15;;;;;;;2.72;0.60;;;;;;;;;;5007634;28;20391;-83
2021/09/29 14:38:40;;;;;;;2.50;0.60;;;;;;;;;;5035468;28;20527;-80
2021/09/29 14:41:12;;;;;;;3.00;0.60;;;;;;;;;;5041395;28;20040;-80
2021/09/29 14:43:42;;;;;;;2.78;0.70;;;;;;;;;;5055762;28;20127;-80
2021/09/29 14:46:11;;;;;;;3.13;0.70;;;;;;;;;;5058705;28;20027;-85
2021/09/29 14:48:43;;;;;;;3.17;0.63;;;;;;;;;;5050115;28;20653;-82
2021/09/29 14:51:12;;;;;;;3.85;0.70;;;;;;;;;;5045749;28;20056;-82
2021/09/29 14:53:49;;;;;;;2.72;0.70;;;;;;;;;;5001270;28;20079;-82
2021/09/29 14:56:17;;;;;;;2.90;0.45;;;;;;;;;;5045152;28;20052;-81
2021/09/29 14:58:46;;;;;;;5.10;1.20;;;;;;;;;;5024265;28;20503;-80
2021/09/29 15:01:15;;;;;;;4.00;0.70;;;;;;;;;;5036192;28;20029;-81
2021/09/29 15:03:49;;;;;;;2.92;0.80;;;;;;;;;;5025444;28;20025;-80
2021/09/29 15:06:15;;;;;;;4.75;0.80;;;;;;;;;;5033351;28;20040;-81
2021/09/29 15:08:46;;;;;;;4.03;0.75;;;;;;;;;;5026553;28;20052;-80
2021/09/29 15:11:15;;;;;;;5.38;0.80;;;;;;;;;;5033928;28;20574;-84
2021/09/29 15:13:53;;;;;;;3.03;0.70;;;;;;;;;;5018093;28;20479;-79
2021/09/29 15:16:27;;;;;;;3.17;0.57;;;;;;;;;;5021627;28;20052;-80
2021/09/29 15:24:53;;;;;;;3.63;0.50;;;;;;;;;;5007041;28;20076;-84
2021/09/29 15:48:32;;;;;;;3.30;0.70;;;;;;;;;;5054761;28;20434;-83
2021/09/29 16:17:39;;;;;;;2.03;0.50;;;;;;;;;;4987157;28;20435;-82
2021/09/29 16:21:08;;;;;;;0.60;0.40;;;;;;;;;;5007363;28;20571;-85
2021/09/29 16:23:41;;;;;;;0.40;0.40;;;;;;;;;;5000106;28;20033;-85
2021/09/29 16:35:04;;;;;;;2.22;0.50;;;;;;;;;;4969850;28;20045;-81
2021/09/29 16:37:31;;;;;;;2.42;0.50;;;;;;;;;;4991598;28;20038;-83
2021/09/29 16:39:59;;;;;;;2.42;0.57;;;;;;;;;;4980942;28;20026;-84
2021/09/29 16:42:30;;;;;;;1.33;0.50;;;;;;;;;;4992513;28;20046;-83
2021/09/29 16:45:03;;;;;;;2.10;0.65;;;;;;;;;;4974754;28;20545;-84
2021/09/29 16:47:30;;;;;;;1.55;0.70;;;;;;;;;;4981699;28;20532;-82
2021/09/29 16:50:03;;;;;;;1.88;0.65;;;;;;;;;;4956688;28;20046;-82
2021/09/29 16:55:05;;;;;;;3.40;0.80;;;;;;;;;;5016801;28;20119;-83
2021/09/29 16:57:41;;;;;;;2.28;0.60;;;;;;;;;;4992486;28;20041;-85
2021/09/29 17:00:19;;;;;;;3.53;0.52;;;;;;;;;;4982934;28;20128;-81
2021/09/29 17:03:04;;;;;;;4.63;0.90;;;;;;;;;;4996684;28;20633;-81
2021/09/29 17:05:35;;;;;;;3.47;0.88;;;;;;;;;;4983268;28;20173;-84
2021/09/29 17:08:04;;;;;;;4.07;0.80;;;;;;;;;;4997744;28;20042;-85
2021/09/29 17:10:36;;;;;;;2.70;0.80;;;;;;;;;;4996250;28;20034;-82
2021/09/29 17:13:06;;;;;;;2.72;1.00;;;;;;;;;;4988711;28;20425;-80
2021/09/29 17:15:35;;;;;;;2.70;0.80;;;;;;;;;;5002764;28;20049;-81
2021/09/29 17:18:06;;;;;;;2.80;0.85;;;;;;;;;;5056831;28;20108;-83
2021/09/29 17:20:38;;;;;;;4.10;1.40;;;;;;;;;;5039471;28;20035;-82
2021/09/29 17:23:09;;;;;;;2.08;0.90;;;;;;;;;;5044050;28;20183;-80
2021/09/29 17:25:37;;;;;;;2.50;0.80;;;;;;;;;;5052947;28;20083;-80
2021/09/29 17:28:14;;;;;;;3.42;0.77;;;;;;;;;;5040485;28;20544;-84
2021/09/29 17:30:42;;;;;;;2.63;0.80;;;;;;;;;;5024648;28;20036;-80
2021/09/29 17:52:49;;;;;;;1.88;0.55;;;;;;;;;;5038898;28;20061;-85
2021/09/29 17:55:15;;;;;;;2.67;0.70;;;;;;;;;;5047888;28;20033;-85
2021/09/29 17:57:43;;;;;;;2.55;0.60;;;;;;;;;;5015975;28;20029;-85
2021/09/29 18:00:13;;;;;;;3.80;0.80;;;;;;;;;;5029985;28;20787;-85
2021/09/29 18:02:47;;;;;;;2.63;0.70;;;;;;;;;;5035137;28;20037;-82
2021/09/29 18:05:26;;;;;;;3.03;0.70;;;;;;;;;;5050747;28;20029;-82
2021/09/29 18:07:51;;;;;;;6.93;1.13;;;;;;;;;;5048466;28;20028;-84
2021/09/29 18:10:17;;;;;;;4.68;0.90;;;;;;;;;;5012202;28;20029;-82
2021/09/29 18:12:45;;;;;;;6.65;1.40;;;;;;;;;;5014289;28;20037;-86
2021/09/29 18:15:14;;;;;;;4.00;0.98;;;;;;;;;;5053855;28;20040;-81
2021/09/29 18:17:45;;;;;;;3.45;1.08;;;;;;;;;;5026503;28;20778;-82
2021/09/29 18:20:18;;;;;;;2.22;0.80;;;;;;;;;;5025520;28;20503;-81
2021/09/29 18:22:48;;;;;;;2.42;0.82;;;;;;;;;;5024823;28;20029;-86
2021/09/29 18:25:18;;;;;;;4.28;0.90;;;;;;;;;;5053562;28;20509;-87
2021/09/29 18:27:47;;;;;;;1.27;0.63;;;;;;;;;;5018069;28;20036;-82
2021/09/29 18:30:17;;;;;;;4.20;0.70;;;;;;;;;;5028191;28;20025;-85
2021/09/29 18:32:52;;;;;;;2.78;0.68;;;;;;;;;;5022194;28;20783;-82
2021/09/29 18:35:19;;;;;;;1.92;0.70;;;;;;;;;;5013911;28;20036;-82
2021/09/29 18:37:50;;;;;;;3.15;0.80;;;;;;;;;;5024950;28;20032;-82
2021/09/29 18:40:19;;;;;;;2.65;0.65;;;;;;;;;;5018842;28;20539;-85
2021/09/29 18:42:51;;;;;;;2.97;1.02;;;;;;;;;;5022654;28;20105;-86
2021/09/29 18:45:21;;;;;;;9.98;0.90;;;;;;;;;;5025365;28;20025;-82
2021/09/29 18:48:23;;;;;;;;;;;;;;;;;;;;;
2021/09/29 18:50:54;;;;;;;2.90;0.80;;;;;;;;;;5139373;23;20222;-82
2021/09/29 18:53:23;;;;;;;3.30;0.80;;;;;;;;;;5036743;28;20032;-81
2021/09/29 18:56:02;;;;;;;4.38;0.80;;;;;;;;;;5050051;28;20019;-83
2021/09/29 19:08:05;;;;;;;2.40;0.80;;;;;;;;;;4934071;29;19924;-85
2021/09/29 19:10:32;;;;;;;2.70;0.80;;;;;;;;;;4955568;28;20060;-81
2021/09/29 19:12:58;;;;;;;2.95;1.10;;;;;;;;;;5030618;28;20025;-81
2021/09/29 19:15:26;;;;;;;3.45;0.90;;;;;;;;;;5046267;28;20031;-84
2021/09/29 19:17:55;;;;;;;2.13;0.85;;;;;;;;;;5025572;28;20543;-82
2021/09/29 19:20:27;;;;;;;3.15;1.10;;;;;;;;;;5030074;28;20039;-81